Aérodrome :
LOGIN :

S'inscrire | Disclaimer

   EN    FR    IT 

 










Légende :    VFR   VFR Marginal   IFR   IFR Intensif   IFR Très Intensif
Visi : 
Plafond : 
>= 8 km
>= 3000ft
5 à 8 km
1000 à 3000 ft
1500m à 5 km
500 à 1000 ft
800 à 1500m
200 à 500 ft
< 800m
< 200 ft
Symboles :   Orages  Brouillard  Fortes neiges  Fortes précipitations  Vent > 20 kt
SIGMETs :   Divers  Orages  Givrage  Turbulence  Onde Orograph.  Cendres Volcan.






- Altitude de l'aérodrome : 755 ft
- Code IATA : DRS


EDDC - Dresden Klotzsche

DERNIER METAR :
  • 280750Z 33009KT 280V360 9999 SCT027 14/07 Q1029 NOSIG

METARs EXPIRÉS :
  • 280720Z 34008KT 9999 FEW012 SCT024 13/08 Q1029 NOSIG
  • 280650Z 34008KT 310V010 9999 FEW010 SCT024 12/09 Q1029 NOSIG
  • 280620Z 35006KT 310V040 9999 FEW005 SCT010 12/11 Q1029 TEMPO BKN010
  • 280550Z 34005KT 290V010 9999 SCT004 SCT008 11/11 Q1029 TEMPO BKN008
  • 280520Z 33005KT 290V010 9999 BKN004 SCT014 11/11 Q1029 BECMG BKN005

TAF TAF EDDC
Valide du 28 à 06h jusqu'au 29 à 06h UTC


280500Z 2806/2906 33004KT 9999 FEW040
TEMPO 2806/2809 BKN006
BECMG 2806/2808 34009KT
BECMG 2816/2818 34004KT
BECMG 2901/2903 BKN005



MET'MAP, la Météo Aéronautique d'un coup d'oeil ! - Copyright ORBIFLY Décembre 2007 - Disclaimer

ORBIFLY MET'MAP TEAM :

Programmation & Développement : Alexandra Zaïnal
Sur une idée originale de : Baudouin d'Aumeries
Assistance à la programmation : Marc-Olivier Méhu
Soutien technique & logistique : Manuel Goepfert

Contact : metmap@orbifly.com




SOURCES & CREDITS :

   NOAA